Terminal Aerodrome Forecast
Issued by NWS

Home | Current Version | Previous Version | Text Only | Print | Product List | Glossary On
Versions: 1 2 3 4 5 6 7 8 9 10 11 12 13 14 15 16 17 18
330
FTUS45 KRIW 231213 AAA
TAFBPI
TAF AMD
KBPI 231213Z 2312/2412 VRB06KT 2SM -SN SCT012 OVC020
      TEMPO 2312/2314 3/4SM -SN SCT007 OVC012
     FM231600 16008KT 3/4SM -SN SCT007 OVC012
     FM232100 16008KT 2SM -SN SCT012 OVC020
     FM240000 VRB05KT 4SM -SN OVC025=

USA.gov is the U.S. government's official web portal to all federal, state and local government web resources and services.